sensor_id;sensor_type;location;lat;lon;timestamp;temperature;humidity
9043;DHT22;4556;49.150;8.808;2022-12-18T00:00:58;-8.30;99.90
9043;DHT22;4556;49.150;8.808;2022-12-18T00:03:25;-8.00;99.90
9043;DHT22;4556;49.150;8.808;2022-12-18T00:05:54;-8.40;99.90
9043;DHT22;4556;49.150;8.808;2022-12-18T00:08:20;-8.00;99.90
9043;DHT22;4556;49.150;8.808;2022-12-18T00:10:47;-8.20;99.90
9043;DHT22;4556;49.150;8.808;2022-12-18T00:13:14;-8.30;99.90
9043;DHT22;4556;49.150;8.808;2022-12-18T00:15:41;-8.30;99.90
9043;DHT22;4556;49.150;8.808;2022-12-18T00:18:09;-8.40;99.90
9043;DHT22;4556;49.150;8.808;2022-12-18T00:20:37;-8.40;99.90
9043;DHT22;4556;49.150;8.808;2022-12-18T00:23:06;-8.60;99.90
9043;DHT22;4556;49.150;8.808;2022-12-18T00:25:33;-6.00;99.90
9043;DHT22;4556;49.150;8.808;2022-12-18T00:28:01;-8.30;99.90
9043;DHT22;4556;49.150;8.808;2022-12-18T00:32:55;-8.20;99.90
9043;DHT22;4556;49.150;8.808;2022-12-18T00:35:22;-8.20;99.90
9043;DHT22;4556;49.150;8.808;2022-12-18T00:37:49;-8.10;99.90
9043;DHT22;4556;49.150;8.808;2022-12-18T00:40:17;-8.00;99.90
9043;DHT22;4556;49.150;8.808;2022-12-18T00:42:44;-5.90;99.90
9043;DHT22;4556;49.150;8.808;2022-12-18T00:45:22;-8.10;99.90
9043;DHT22;4556;49.150;8.808;2022-12-18T00:50:18;-8.20;99.90
9043;DHT22;4556;49.150;8.808;2022-12-18T00:52:45;-8.10;99.90
9043;DHT22;4556;49.150;8.808;2022-12-18T00:55:12;-7.80;99.90
9043;DHT22;4556;49.150;8.808;2022-12-18T00:57:41;-7.90;99.90
9043;DHT22;4556;49.150;8.808;2022-12-18T01:00:10;-7.90;99.90
9043;DHT22;4556;49.150;8.808;2022-12-18T01:02:37;-7.90;99.90
9043;DHT22;4556;49.150;8.808;2022-12-18T01:05:04;-7.80;99.90
9043;DHT22;4556;49.150;8.808;2022-12-18T01:07:32;-7.90;99.90
9043;DHT22;4556;49.150;8.808;2022-12-18T01:09:58;-8.00;99.90
9043;DHT22;4556;49.150;8.808;2022-12-18T01:12:25;-8.00;99.90
9043;DHT22;4556;49.150;8.808;2022-12-18T01:14:54;-8.10;99.90
9043;DHT22;4556;49.150;8.808;2022-12-18T01:17:21;-8.10;99.90
9043;DHT22;4556;49.150;8.808;2022-12-18T01:19:48;-8.10;99.90
9043;DHT22;4556;49.150;8.808;2022-12-18T01:22:15;-8.00;99.90
9043;DHT22;4556;49.150;8.808;2022-12-18T01:24:42;-8.20;99.90
9043;DHT22;4556;49.150;8.808;2022-12-18T01:27:09;-6.90;99.90
9043;DHT22;4556;49.150;8.808;2022-12-18T01:29:36;-8.10;99.90
9043;DHT22;4556;49.150;8.808;2022-12-18T01:32:05;-8.20;99.90
9043;DHT22;4556;49.150;8.808;2022-12-18T01:34:32;-8.20;99.90
9043;DHT22;4556;49.150;8.808;2022-12-18T01:37:02;-8.20;99.90
9043;DHT22;4556;49.150;8.808;2022-12-18T01:39:29;-6.10;99.90
9043;DHT22;4556;49.150;8.808;2022-12-18T01:41:57;-5.70;99.90
9043;DHT22;4556;49.150;8.808;2022-12-18T01:44:59;-8.00;99.90
9043;DHT22;4556;49.150;8.808;2022-12-18T01:47:32;-8.00;99.90
9043;DHT22;4556;49.150;8.808;2022-12-18T01:50:01;-8.00;99.90
9043;DHT22;4556;49.150;8.808;2022-12-18T01:52:31;-7.80;99.90
9043;DHT22;4556;49.150;8.808;2022-12-18T01:54:59;-7.80;99.90
9043;DHT22;4556;49.150;8.808;2022-12-18T01:57:28;-7.90;99.90
9043;DHT22;4556;49.150;8.808;2022-12-18T01:59:59;-8.00;99.90
9043;DHT22;4556;49.150;8.808;2022-12-18T02:02:30;-8.00;99.90
9043;DHT22;4556;49.150;8.808;2022-12-18T02:04:59;-8.00;99.90
9043;DHT22;4556;49.150;8.808;2022-12-18T02:07:35;-7.80;99.90
9043;DHT22;4556;49.150;8.808;2022-12-18T02:10:07;-7.80;99.90
9043;DHT22;4556;49.150;8.808;2022-12-18T02:12:43;-8.10;99.90
9043;DHT22;4556;49.150;8.808;2022-12-18T02:15:15;-8.00;99.90
9043;DHT22;4556;49.150;8.808;2022-12-18T02:17:50;-8.00;99.90
9043;DHT22;4556;49.150;8.808;2022-12-18T02:20:23;-7.90;99.90
9043;DHT22;4556;49.150;8.808;2022-12-18T02:23:04;-8.00;99.90
9043;DHT22;4556;49.150;8.808;2022-12-18T02:28:17;-8.10;99.90
9043;DHT22;4556;49.150;8.808;2022-12-18T02:30:48;-8.10;99.90
9043;DHT22;4556;49.150;8.808;2022-12-18T02:33:16;-8.20;99.90
9043;DHT22;4556;49.150;8.808;2022-12-18T02:35:44;-8.10;99.90
9043;DHT22;4556;49.150;8.808;2022-12-18T02:38:12;-8.00;99.90
9043;DHT22;4556;49.150;8.808;2022-12-18T02:40:40;-8.00;99.90
9043;DHT22;4556;49.150;8.808;2022-12-18T02:43:09;-8.10;99.90
9043;DHT22;4556;49.150;8.808;2022-12-18T02:45:46;-8.20;99.90
9043;DHT22;4556;49.150;8.808;2022-12-18T02:48:13;-8.20;99.90
9043;DHT22;4556;49.150;8.808;2022-12-18T02:50:45;-8.20;99.90
9043;DHT22;4556;49.150;8.808;2022-12-18T02:53:23;-5.90;99.90
9043;DHT22;4556;49.150;8.808;2022-12-18T02:55:58;-8.30;99.90
9043;DHT22;4556;49.150;8.808;2022-12-18T02:58:35;-8.10;99.90
9043;DHT22;4556;49.150;8.808;2022-12-18T03:01:11;-8.10;99.90
9043;DHT22;4556;49.150;8.808;2022-12-18T03:03:43;-8.00;99.90
9043;DHT22;4556;49.150;8.808;2022-12-18T03:06:20;-8.00;99.90
9043;DHT22;4556;49.150;8.808;2022-12-18T03:08:54;-8.00;99.90
9043;DHT22;4556;49.150;8.808;2022-12-18T03:11:22;-5.20;99.90
9043;DHT22;4556;49.150;8.808;2022-12-18T03:14:06;-8.20;99.90
9043;DHT22;4556;49.150;8.808;2022-12-18T03:16:36;-8.30;99.90
9043;DHT22;4556;49.150;8.808;2022-12-18T03:19:08;-7.90;99.90
9043;DHT22;4556;49.150;8.808;2022-12-18T03:21:42;-8.00;99.90
9043;DHT22;4556;49.150;8.808;2022-12-18T03:24:11;-7.90;99.90
9043;DHT22;4556;49.150;8.808;2022-12-18T03:26:40;-8.00;99.90
9043;DHT22;4556;49.150;8.808;2022-12-18T03:29:12;-8.00;99.90
9043;DHT22;4556;49.150;8.808;2022-12-18T03:31:47;-8.10;99.90
9043;DHT22;4556;49.150;8.808;2022-12-18T03:34:17;-8.10;99.90
9043;DHT22;4556;49.150;8.808;2022-12-18T03:36:46;-8.00;99.90
9043;DHT22;4556;49.150;8.808;2022-12-18T03:39:13;-7.90;99.90
9043;DHT22;4556;49.150;8.808;2022-12-18T03:41:43;-7.80;99.90
9043;DHT22;4556;49.150;8.808;2022-12-18T03:44:13;-7.80;99.90
9043;DHT22;4556;49.150;8.808;2022-12-18T03:46:48;-8.00;99.90
9043;DHT22;4556;49.150;8.808;2022-12-18T03:49:23;-7.80;99.90
9043;DHT22;4556;49.150;8.808;2022-12-18T03:51:54;-7.80;99.90
9043;DHT22;4556;49.150;8.808;2022-12-18T03:54:25;-7.90;99.90
9043;DHT22;4556;49.150;8.808;2022-12-18T03:56:57;-7.90;99.90
9043;DHT22;4556;49.150;8.808;2022-12-18T03:59:26;-7.80;99.90
9043;DHT22;4556;49.150;8.808;2022-12-18T04:01:57;-7.80;99.90
9043;DHT22;4556;49.150;8.808;2022-12-18T04:04:27;-7.80;99.90
9043;DHT22;4556;49.150;8.808;2022-12-18T04:06:55;-7.90;99.90
9043;DHT22;4556;49.150;8.808;2022-12-18T04:09:23;-8.00;99.90
9043;DHT22;4556;49.150;8.808;2022-12-18T04:11:51;-7.90;99.90
9043;DHT22;4556;49.150;8.808;2022-12-18T04:14:18;-8.00;99.90
9043;DHT22;4556;49.150;8.808;2022-12-18T04:16:45;-8.00;99.90
9043;DHT22;4556;49.150;8.808;2022-12-18T04:19:14;-8.00;99.90
9043;DHT22;4556;49.150;8.808;2022-12-18T04:21:41;-8.10;99.90
9043;DHT22;4556;49.150;8.808;2022-12-18T04:24:07;-8.10;99.90
9043;DHT22;4556;49.150;8.808;2022-12-18T04:29:02;-8.20;99.90
9043;DHT22;4556;49.150;8.808;2022-12-18T04:31:29;-8.20;99.90
9043;DHT22;4556;49.150;8.808;2022-12-18T04:33:56;-8.20;99.90
9043;DHT22;4556;49.150;8.808;2022-12-18T04:36:27;-8.30;99.90
9043;DHT22;4556;49.150;8.808;2022-12-18T04:38:54;-8.40;99.90
9043;DHT22;4556;49.150;8.808;2022-12-18T04:41:21;-9.50;99.90
9043;DHT22;4556;49.150;8.808;2022-12-18T04:43:48;-8.40;99.90
9043;DHT22;4556;49.150;8.808;2022-12-18T04:46:15;-8.40;99.90
9043;DHT22;4556;49.150;8.808;2022-12-18T04:48:45;-8.30;99.90
9043;DHT22;4556;49.150;8.808;2022-12-18T04:51:12;-8.20;99.90
9043;DHT22;4556;49.150;8.808;2022-12-18T04:53:41;-8.30;99.90
9043;DHT22;4556;49.150;8.808;2022-12-18T04:56:09;-8.20;99.90
9043;DHT22;4556;49.150;8.808;2022-12-18T04:58:38;-8.20;99.90
9043;DHT22;4556;49.150;8.808;2022-12-18T05:01:06;-8.10;99.90
9043;DHT22;4556;49.150;8.808;2022-12-18T05:03:34;-8.20;99.90
9043;DHT22;4556;49.150;8.808;2022-12-18T05:06:02;-8.10;99.90
9043;DHT22;4556;49.150;8.808;2022-12-18T05:08:29;-8.00;99.90
9043;DHT22;4556;49.150;8.808;2022-12-18T05:11:02;-8.00;99.90
9043;DHT22;4556;49.150;8.808;2022-12-18T05:13:29;-7.90;99.90
9043;DHT22;4556;49.150;8.808;2022-12-18T05:15:56;-7.80;99.90
9043;DHT22;4556;49.150;8.808;2022-12-18T05:18:24;-7.80;99.90
9043;DHT22;4556;49.150;8.808;2022-12-18T05:20:52;-7.80;99.90
9043;DHT22;4556;49.150;8.808;2022-12-18T05:23:20;-7.80;99.90
9043;DHT22;4556;49.150;8.808;2022-12-18T05:25:51;-7.70;99.90
9043;DHT22;4556;49.150;8.808;2022-12-18T05:28:20;-7.80;99.90
9043;DHT22;4556;49.150;8.808;2022-12-18T05:30:48;-7.80;99.90
9043;DHT22;4556;49.150;8.808;2022-12-18T05:33:16;-7.90;99.90
9043;DHT22;4556;49.150;8.808;2022-12-18T05:35:43;-7.90;99.90
9043;DHT22;4556;49.150;8.808;2022-12-18T05:38:10;-8.30;99.90
9043;DHT22;4556;49.150;8.808;2022-12-18T05:40:36;-8.00;99.90
9043;DHT22;4556;49.150;8.808;2022-12-18T05:43:06;-8.00;99.90
9043;DHT22;4556;49.150;8.808;2022-12-18T05:45:36;-8.00;99.90
9043;DHT22;4556;49.150;8.808;2022-12-18T05:48:04;-7.90;99.90
9043;DHT22;4556;49.150;8.808;2022-12-18T05:50:34;-7.90;99.90
9043;DHT22;4556;49.150;8.808;2022-12-18T05:55:28;-7.90;99.90
9043;DHT22;4556;49.150;8.808;2022-12-18T06:00:22;-7.90;99.90
9043;DHT22;4556;49.150;8.808;2022-12-18T06:02:50;-7.90;99.90
9043;DHT22;4556;49.150;8.808;2022-12-18T06:05:17;-7.80;99.90
9043;DHT22;4556;49.150;8.808;2022-12-18T06:07:44;-7.80;99.90
9043;DHT22;4556;49.150;8.808;2022-12-18T06:10:11;-7.60;99.90
9043;DHT22;4556;49.150;8.808;2022-12-18T06:12:38;-7.60;99.90
9043;DHT22;4556;49.150;8.808;2022-12-18T06:15:06;-7.70;99.90
9043;DHT22;4556;49.150;8.808;2022-12-18T06:17:34;-7.70;99.90
9043;DHT22;4556;49.150;8.808;2022-12-18T06:20:03;-6.40;99.90
9043;DHT22;4556;49.150;8.808;2022-12-18T06:22:31;-7.70;99.90
9043;DHT22;4556;49.150;8.808;2022-12-18T06:24:59;-7.40;99.90
9043;DHT22;4556;49.150;8.808;2022-12-18T06:29:53;-7.70;99.90
9043;DHT22;4556;49.150;8.808;2022-12-18T06:32:19;-7.80;99.90
9043;DHT22;4556;49.150;8.808;2022-12-18T06:34:46;-7.40;99.90
9043;DHT22;4556;49.150;8.808;2022-12-18T06:37:15;-7.80;99.90
9043;DHT22;4556;49.150;8.808;2022-12-18T06:39:42;-7.80;99.90
9043;DHT22;4556;49.150;8.808;2022-12-18T06:44:36;-7.80;99.90
9043;DHT22;4556;49.150;8.808;2022-12-18T06:47:03;-7.60;99.90
9043;DHT22;4556;49.150;8.808;2022-12-18T06:49:30;-7.80;99.90
9043;DHT22;4556;49.150;8.808;2022-12-18T06:51:57;-7.70;99.90
9043;DHT22;4556;49.150;8.808;2022-12-18T06:54:25;-7.80;99.90
9043;DHT22;4556;49.150;8.808;2022-12-18T06:56:55;-7.20;99.90
9043;DHT22;4556;49.150;8.808;2022-12-18T06:59:21;-7.80;99.90
9043;DHT22;4556;49.150;8.808;2022-12-18T07:01:48;-7.90;99.90
9043;DHT22;4556;49.150;8.808;2022-12-18T07:04:16;-8.00;99.90
9043;DHT22;4556;49.150;8.808;2022-12-18T07:06:42;-8.20;99.90
9043;DHT22;4556;49.150;8.808;2022-12-18T07:09:09;-8.30;99.90
9043;DHT22;4556;49.150;8.808;2022-12-18T07:11:38;-6.50;99.90
9043;DHT22;4556;49.150;8.808;2022-12-18T07:14:05;-8.40;99.90
9043;DHT22;4556;49.150;8.808;2022-12-18T07:16:32;-8.70;99.90
9043;DHT22;4556;49.150;8.808;2022-12-18T07:21:26;-8.60;99.90
9043;DHT22;4556;49.150;8.808;2022-12-18T07:23:53;-6.00;99.90
9043;DHT22;4556;49.150;8.808;2022-12-18T07:26:21;-8.60;99.90
9043;DHT22;4556;49.150;8.808;2022-12-18T07:28:50;-8.60;99.90
9043;DHT22;4556;49.150;8.808;2022-12-18T07:31:18;-8.50;99.90
9043;DHT22;4556;49.150;8.808;2022-12-18T07:36:13;-8.60;99.90
9043;DHT22;4556;49.150;8.808;2022-12-18T07:38:43;-8.60;99.90
9043;DHT22;4556;49.150;8.808;2022-12-18T07:41:12;-8.60;99.90
9043;DHT22;4556;49.150;8.808;2022-12-18T07:43:40;-8.60;99.90
9043;DHT22;4556;49.150;8.808;2022-12-18T07:46:09;-8.50;99.90
9043;DHT22;4556;49.150;8.808;2022-12-18T07:48:41;-6.20;99.90
9043;DHT22;4556;49.150;8.808;2022-12-18T07:51:08;-5.60;99.90
9043;DHT22;4556;49.150;8.808;2022-12-18T07:53:36;-8.60;99.90
9043;DHT22;4556;49.150;8.808;2022-12-18T07:56:05;-8.50;99.90
9043;DHT22;4556;49.150;8.808;2022-12-18T07:58:34;-8.40;99.90
9043;DHT22;4556;49.150;8.808;2022-12-18T08:01:04;-8.50;99.90
9043;DHT22;4556;49.150;8.808;2022-12-18T08:03:33;-8.30;99.90
9043;DHT22;4556;49.150;8.808;2022-12-18T08:06:00;-6.80;99.90
9043;DHT22;4556;49.150;8.808;2022-12-18T08:08:27;-8.40;99.90
9043;DHT22;4556;49.150;8.808;2022-12-18T08:10:55;-8.30;99.90
9043;DHT22;4556;49.150;8.808;2022-12-18T08:13:22;-8.20;99.90
9043;DHT22;4556;49.150;8.808;2022-12-18T08:15:56;-8.20;99.90
9043;DHT22;4556;49.150;8.808;2022-12-18T08:18:23;-8.20;99.90
9043;DHT22;4556;49.150;8.808;2022-12-18T08:20:51;-8.30;99.90
9043;DHT22;4556;49.150;8.808;2022-12-18T08:25:46;-8.10;99.90
9043;DHT22;4556;49.150;8.808;2022-12-18T08:28:15;-5.30;99.90
9043;DHT22;4556;49.150;8.808;2022-12-18T08:30:42;-8.00;99.90
9043;DHT22;4556;49.150;8.808;2022-12-18T08:33:10;-8.00;99.90
9043;DHT22;4556;49.150;8.808;2022-12-18T08:35:37;-7.90;99.90
9043;DHT22;4556;49.150;8.808;2022-12-18T08:38:05;-7.90;99.90
9043;DHT22;4556;49.150;8.808;2022-12-18T08:43:00;-7.90;99.90
9043;DHT22;4556;49.150;8.808;2022-12-18T08:45:44;-7.90;99.90
9043;DHT22;4556;49.150;8.808;2022-12-18T08:48:11;-7.80;99.90
9043;DHT22;4556;49.150;8.808;2022-12-18T08:50:38;-7.80;99.90
9043;DHT22;4556;49.150;8.808;2022-12-18T08:53:06;-7.70;99.90
9043;DHT22;4556;49.150;8.808;2022-12-18T08:58:00;-7.70;99.90
9043;DHT22;4556;49.150;8.808;2022-12-18T09:00:27;-7.80;99.90
9043;DHT22;4556;49.150;8.808;2022-12-18T09:02:54;-8.10;99.90
9043;DHT22;4556;49.150;8.808;2022-12-18T09:07:48;-7.60;99.90
9043;DHT22;4556;49.150;8.808;2022-12-18T09:10:17;-7.60;99.90
9043;DHT22;4556;49.150;8.808;2022-12-18T09:12:43;-7.50;99.90
9043;DHT22;4556;49.150;8.808;2022-12-18T09:15:11;-7.50;99.90
9043;DHT22;4556;49.150;8.808;2022-12-18T09:17:38;-7.50;99.90
9043;DHT22;4556;49.150;8.808;2022-12-18T09:20:06;-7.40;99.90
9043;DHT22;4556;49.150;8.808;2022-12-18T09:22:33;-7.30;99.90
9043;DHT22;4556;49.150;8.808;2022-12-18T09:25:00;-7.20;99.90
9043;DHT22;4556;49.150;8.808;2022-12-18T09:27:28;-7.20;99.90
9043;DHT22;4556;49.150;8.808;2022-12-18T09:29:55;-7.20;99.90
9043;DHT22;4556;49.150;8.808;2022-12-18T09:32:22;-7.10;99.90
9043;DHT22;4556;49.150;8.808;2022-12-18T09:34:49;-7.10;99.90
9043;DHT22;4556;49.150;8.808;2022-12-18T09:39:45;-6.90;99.90
9043;DHT22;4556;49.150;8.808;2022-12-18T09:42:19;-5.90;99.90
9043;DHT22;4556;49.150;8.808;2022-12-18T09:44:50;-6.70;99.90
9043;DHT22;4556;49.150;8.808;2022-12-18T09:47:21;-7.10;99.90
9043;DHT22;4556;49.150;8.808;2022-12-18T09:49:54;-6.70;99.90
9043;DHT22;4556;49.150;8.808;2022-12-18T09:52:26;-5.90;99.90
9043;DHT22;4556;49.150;8.808;2022-12-18T09:54:58;-6.50;99.90
9043;DHT22;4556;49.150;8.808;2022-12-18T09:57:28;-6.60;99.90
9043;DHT22;4556;49.150;8.808;2022-12-18T10:00:03;-6.20;99.90
9043;DHT22;4556;49.150;8.808;2022-12-18T10:02:31;-6.50;99.90
9043;DHT22;4556;49.150;8.808;2022-12-18T10:05:07;-6.10;99.90
9043;DHT22;4556;49.150;8.808;2022-12-18T10:07:49;-6.10;99.90
9043;DHT22;4556;49.150;8.808;2022-12-18T10:10:29;-6.00;99.90
9043;DHT22;4556;49.150;8.808;2022-12-18T10:13:06;-5.90;99.90
9043;DHT22;4556;49.150;8.808;2022-12-18T10:15:41;-5.70;99.90
9043;DHT22;4556;49.150;8.808;2022-12-18T10:18:25;-6.10;99.90
9043;DHT22;4556;49.150;8.808;2022-12-18T10:20:56;-5.70;99.90
9043;DHT22;4556;49.150;8.808;2022-12-18T10:23:28;-5.70;99.90
9043;DHT22;4556;49.150;8.808;2022-12-18T10:26:02;-3.10;99.90
9043;DHT22;4556;49.150;8.808;2022-12-18T10:28:30;-4.30;99.90
9043;DHT22;4556;49.150;8.808;2022-12-18T10:30:58;-5.50;99.90
9043;DHT22;4556;49.150;8.808;2022-12-18T10:33:29;-5.40;99.90
9043;DHT22;4556;49.150;8.808;2022-12-18T10:35:59;-5.50;99.90
9043;DHT22;4556;49.150;8.808;2022-12-18T10:38:28;-2.50;99.90
9043;DHT22;4556;49.150;8.808;2022-12-18T10:40:57;-5.30;99.90
9043;DHT22;4556;49.150;8.808;2022-12-18T10:43:26;-5.40;99.90
9043;DHT22;4556;49.150;8.808;2022-12-18T10:46:05;-4.50;99.90
9043;DHT22;4556;49.150;8.808;2022-12-18T10:48:41;-5.10;99.90
9043;DHT22;4556;49.150;8.808;2022-12-18T10:51:20;-5.00;99.90
9043;DHT22;4556;49.150;8.808;2022-12-18T10:53:54;-4.90;99.90
9043;DHT22;4556;49.150;8.808;2022-12-18T10:56:22;-4.90;99.90
9043;DHT22;4556;49.150;8.808;2022-12-18T10:58:57;-4.80;99.90
9043;DHT22;4556;49.150;8.808;2022-12-18T11:01:26;-4.70;99.90
9043;DHT22;4556;49.150;8.808;2022-12-18T11:04:04;-2.70;99.90
9043;DHT22;4556;49.150;8.808;2022-12-18T11:06:34;-4.50;99.90
9043;DHT22;4556;49.150;8.808;2022-12-18T11:09:02;-3.70;99.90
9043;DHT22;4556;49.150;8.808;2022-12-18T11:11:30;-2.10;99.90
9043;DHT22;4556;49.150;8.808;2022-12-18T11:14:01;-4.90;99.90
9043;DHT22;4556;49.150;8.808;2022-12-18T11:16:34;-2.40;99.90
9043;DHT22;4556;49.150;8.808;2022-12-18T11:19:16;-4.30;99.90
9043;DHT22;4556;49.150;8.808;2022-12-18T11:21:45;-4.20;99.90
9043;DHT22;4556;49.150;8.808;2022-12-18T11:24:20;-2.70;99.90
9043;DHT22;4556;49.150;8.808;2022-12-18T11:26:49;-4.00;99.90
9043;DHT22;4556;49.150;8.808;2022-12-18T11:29:18;-4.00;99.90
9043;DHT22;4556;49.150;8.808;2022-12-18T11:31:46;-4.00;99.90
9043;DHT22;4556;49.150;8.808;2022-12-18T11:34:16;-4.00;99.90
9043;DHT22;4556;49.150;8.808;2022-12-18T11:36:47;-3.90;99.90
9043;DHT22;4556;49.150;8.808;2022-12-18T11:39:18;-3.80;99.90
9043;DHT22;4556;49.150;8.808;2022-12-18T11:41:50;-3.80;99.90
9043;DHT22;4556;49.150;8.808;2022-12-18T11:44:45;-3.80;99.90
9043;DHT22;4556;49.150;8.808;2022-12-18T11:47:23;-4.20;99.90
9043;DHT22;4556;49.150;8.808;2022-12-18T11:49:53;-3.70;99.90
9043;DHT22;4556;49.150;8.808;2022-12-18T11:52:25;-3.60;99.90
9043;DHT22;4556;49.150;8.808;2022-12-18T11:54:58;-3.50;99.90
9043;DHT22;4556;49.150;8.808;2022-12-18T11:57:32;-3.60;99.90
9043;DHT22;4556;49.150;8.808;2022-12-18T12:00:11;-3.50;99.90
9043;DHT22;4556;49.150;8.808;2022-12-18T12:03:06;-3.40;99.90
9043;DHT22;4556;49.150;8.808;2022-12-18T12:05:44;-3.40;99.90
9043;DHT22;4556;49.150;8.808;2022-12-18T12:08:18;-3.30;99.90
9043;DHT22;4556;49.150;8.808;2022-12-18T12:10:54;-3.20;99.90
9043;DHT22;4556;49.150;8.808;2022-12-18T12:13:35;-2.00;99.90
9043;DHT22;4556;49.150;8.808;2022-12-18T12:16:10;-3.00;99.90
9043;DHT22;4556;49.150;8.808;2022-12-18T12:18:50;-3.10;99.90
9043;DHT22;4556;49.150;8.808;2022-12-18T12:21:26;-3.00;99.90
9043;DHT22;4556;49.150;8.808;2022-12-18T12:24:01;-3.00;99.90
9043;DHT22;4556;49.150;8.808;2022-12-18T12:26:33;-2.90;99.90
9043;DHT22;4556;49.150;8.808;2022-12-18T12:29:15;-2.80;99.90
9043;DHT22;4556;49.150;8.808;2022-12-18T12:31:55;-2.70;99.90
9043;DHT22;4556;49.150;8.808;2022-12-18T12:34:32;-2.70;99.90
9043;DHT22;4556;49.150;8.808;2022-12-18T12:37:13;-2.70;99.90
9043;DHT22;4556;49.150;8.808;2022-12-18T12:39:47;-2.60;99.90
9043;DHT22;4556;49.150;8.808;2022-12-18T12:42:20;-2.60;99.90
9043;DHT22;4556;49.150;8.808;2022-12-18T12:45:16;-1.80;99.90
9043;DHT22;4556;49.150;8.808;2022-12-18T12:47:46;-1.80;99.90
9043;DHT22;4556;49.150;8.808;2022-12-18T12:50:19;0.00;99.90
9043;DHT22;4556;49.150;8.808;2022-12-18T12:52:52;-2.60;99.90
9043;DHT22;4556;49.150;8.808;2022-12-18T12:55:21;-2.60;99.90
9043;DHT22;4556;49.150;8.808;2022-12-18T12:57:57;-2.70;99.90
9043;DHT22;4556;49.150;8.808;2022-12-18T13:00:25;-2.70;99.90
9043;DHT22;4556;49.150;8.808;2022-12-18T13:03:06;-0.80;99.90
9043;DHT22;4556;49.150;8.808;2022-12-18T13:05:44;-2.50;99.90
9043;DHT22;4556;49.150;8.808;2022-12-18T13:08:24;-0.80;99.90
9043;DHT22;4556;49.150;8.808;2022-12-18T13:10:53;-2.50;99.90
9043;DHT22;4556;49.150;8.808;2022-12-18T13:13:49;-2.50;99.90
9043;DHT22;4556;49.150;8.808;2022-12-18T13:16:18;-2.40;99.90
9043;DHT22;4556;49.150;8.808;2022-12-18T13:18:49;-1.60;99.90
9043;DHT22;4556;49.150;8.808;2022-12-18T13:21:21;-2.40;99.90
9043;DHT22;4556;49.150;8.808;2022-12-18T13:23:50;-2.30;99.90
9043;DHT22;4556;49.150;8.808;2022-12-18T13:26:32;-2.30;99.90
9043;DHT22;4556;49.150;8.808;2022-12-18T13:29:00;-2.20;99.90
9043;DHT22;4556;49.150;8.808;2022-12-18T13:34:33;-2.20;99.90
9043;DHT22;4556;49.150;8.808;2022-12-18T13:37:39;-2.20;99.90
9043;DHT22;4556;49.150;8.808;2022-12-18T13:43:22;-2.20;99.90
9043;DHT22;4556;49.150;8.808;2022-12-18T13:45:59;-2.20;99.90
9043;DHT22;4556;49.150;8.808;2022-12-18T13:48:30;-0.10;99.90
9043;DHT22;4556;49.150;8.808;2022-12-18T13:51:01;-2.20;99.90
9043;DHT22;4556;49.150;8.808;2022-12-18T13:53:46;-2.20;99.90
9043;DHT22;4556;49.150;8.808;2022-12-18T13:56:23;0.30;99.90
9043;DHT22;4556;49.150;8.808;2022-12-18T13:59:14;-2.50;99.90
9043;DHT22;4556;49.150;8.808;2022-12-18T14:01:47;-2.40;99.90
9043;DHT22;4556;49.150;8.808;2022-12-18T14:04:20;-3.50;99.90
9043;DHT22;4556;49.150;8.808;2022-12-18T14:06:50;-0.80;99.90
9043;DHT22;4556;49.150;8.808;2022-12-18T14:09:23;-2.60;99.90
9043;DHT22;4556;49.150;8.808;2022-12-18T14:11:51;-2.50;99.90
9043;DHT22;4556;49.150;8.808;2022-12-18T14:14:44;-2.50;99.90
9043;DHT22;4556;49.150;8.808;2022-12-18T14:17:11;-0.40;99.90
9043;DHT22;4556;49.150;8.808;2022-12-18T14:19:42;-2.60;99.90
9043;DHT22;4556;49.150;8.808;2022-12-18T14:22:17;-2.60;99.90
9043;DHT22;4556;49.150;8.808;2022-12-18T14:24:47;-0.30;99.90
9043;DHT22;4556;49.150;8.808;2022-12-18T14:27:22;-2.80;99.90
9043;DHT22;4556;49.150;8.808;2022-12-18T14:29:50;-2.80;99.90
9043;DHT22;4556;49.150;8.808;2022-12-18T14:32:19;-2.70;99.90
9043;DHT22;4556;49.150;8.808;2022-12-18T14:34:47;-2.90;99.90
9043;DHT22;4556;49.150;8.808;2022-12-18T14:37:16;-3.50;99.90
9043;DHT22;4556;49.150;8.808;2022-12-18T14:39:59;-2.80;99.90
9043;DHT22;4556;49.150;8.808;2022-12-18T14:42:26;-2.70;99.90
9043;DHT22;4556;49.150;8.808;2022-12-18T14:47:59;-2.80;99.90
9043;DHT22;4556;49.150;8.808;2022-12-18T14:50:26;-2.70;99.90
9043;DHT22;4556;49.150;8.808;2022-12-18T14:52:53;-2.70;99.90
9043;DHT22;4556;49.150;8.808;2022-12-18T14:55:21;-2.90;99.90
9043;DHT22;4556;49.150;8.808;2022-12-18T14:57:50;-2.30;99.90
9043;DHT22;4556;49.150;8.808;2022-12-18T15:00:20;-2.90;99.90
9043;DHT22;4556;49.150;8.808;2022-12-18T15:02:50;-2.90;99.90
9043;DHT22;4556;49.150;8.808;2022-12-18T15:05:20;-3.00;99.90
9043;DHT22;4556;49.150;8.808;2022-12-18T15:07:48;-1.60;99.90
9043;DHT22;4556;49.150;8.808;2022-12-18T15:10:18;-3.10;99.90
9043;DHT22;4556;49.150;8.808;2022-12-18T15:12:47;-3.20;99.90
9043;DHT22;4556;49.150;8.808;2022-12-18T15:15:46;-3.10;99.90
9043;DHT22;4556;49.150;8.808;2022-12-18T15:18:15;-3.10;99.90
9043;DHT22;4556;49.150;8.808;2022-12-18T15:20:44;-3.20;99.90
9043;DHT22;4556;49.150;8.808;2022-12-18T15:23:16;-1.30;99.90
9043;DHT22;4556;49.150;8.808;2022-12-18T15:25:43;-3.30;99.90
9043;DHT22;4556;49.150;8.808;2022-12-18T15:28:20;-3.20;99.90
9043;DHT22;4556;49.150;8.808;2022-12-18T15:31:06;-3.50;99.90
9043;DHT22;4556;49.150;8.808;2022-12-18T15:33:35;-3.40;99.90
9043;DHT22;4556;49.150;8.808;2022-12-18T15:36:05;-3.30;99.90
9043;DHT22;4556;49.150;8.808;2022-12-18T15:38:34;-3.40;99.90
9043;DHT22;4556;49.150;8.808;2022-12-18T15:41:02;-3.40;99.90
9043;DHT22;4556;49.150;8.808;2022-12-18T15:43:30;-1.80;99.90
9043;DHT22;4556;49.150;8.808;2022-12-18T15:46:00;-3.50;99.90
9043;DHT22;4556;49.150;8.808;2022-12-18T15:48:32;-3.30;99.90
9043;DHT22;4556;49.150;8.808;2022-12-18T15:51:00;-3.40;99.90
9043;DHT22;4556;49.150;8.808;2022-12-18T15:53:30;-2.10;99.90
9043;DHT22;4556;49.150;8.808;2022-12-18T15:55:59;-1.50;99.90
9043;DHT22;4556;49.150;8.808;2022-12-18T15:58:45;-3.50;99.90
9043;DHT22;4556;49.150;8.808;2022-12-18T16:01:12;-3.30;99.90
9043;DHT22;4556;49.150;8.808;2022-12-18T16:03:40;-3.30;99.90
9043;DHT22;4556;49.150;8.808;2022-12-18T16:06:08;-3.30;99.90
9043;DHT22;4556;49.150;8.808;2022-12-18T16:08:35;-3.30;99.90
9043;DHT22;4556;49.150;8.808;2022-12-18T16:11:02;-3.50;99.90
9043;DHT22;4556;49.150;8.808;2022-12-18T16:13:29;-3.60;99.90
9043;DHT22;4556;49.150;8.808;2022-12-18T16:15:58;-3.30;99.90
9043;DHT22;4556;49.150;8.808;2022-12-18T16:18:24;-3.50;99.90
9043;DHT22;4556;49.150;8.808;2022-12-18T16:20:51;-3.40;99.90
9043;DHT22;4556;49.150;8.808;2022-12-18T16:23:19;-3.30;99.90
9043;DHT22;4556;49.150;8.808;2022-12-18T16:25:46;-3.20;99.90
9043;DHT22;4556;49.150;8.808;2022-12-18T16:28:13;-3.20;99.90
9043;DHT22;4556;49.150;8.808;2022-12-18T16:30:40;-3.30;99.90
9043;DHT22;4556;49.150;8.808;2022-12-18T16:33:10;-3.30;99.90
9043;DHT22;4556;49.150;8.808;2022-12-18T16:35:37;-3.30;99.90
9043;DHT22;4556;49.150;8.808;2022-12-18T16:38:04;-3.20;99.90
9043;DHT22;4556;49.150;8.808;2022-12-18T16:40:31;-3.20;99.90
9043;DHT22;4556;49.150;8.808;2022-12-18T16:43:18;-3.20;99.90
9043;DHT22;4556;49.150;8.808;2022-12-18T16:45:45;-3.20;99.90
9043;DHT22;4556;49.150;8.808;2022-12-18T16:48:14;-3.20;99.90
9043;DHT22;4556;49.150;8.808;2022-12-18T16:50:41;-3.40;99.90
9043;DHT22;4556;49.150;8.808;2022-12-18T16:55:35;-3.20;99.90
9043;DHT22;4556;49.150;8.808;2022-12-18T16:58:02;-3.30;99.90
9043;DHT22;4556;49.150;8.808;2022-12-18T17:00:28;-0.80;99.90
9043;DHT22;4556;49.150;8.808;2022-12-18T17:02:55;-3.30;99.90
9043;DHT22;4556;49.150;8.808;2022-12-18T17:05:24;-1.20;99.90
9043;DHT22;4556;49.150;8.808;2022-12-18T17:07:50;-3.20;99.90
9043;DHT22;4556;49.150;8.808;2022-12-18T17:10:17;-3.20;99.90
9043;DHT22;4556;49.150;8.808;2022-12-18T17:12:44;-2.70;99.90